sensor_id;sensor_type;location;lat;lon;timestamp;pressure;altitude;pressure_sealevel;temperature;humidity
59787;BME280;45672;51.612;5.536;2023-05-17T00:01:35;102260.53;;;9.56;93.88
59787;BME280;45672;51.612;5.536;2023-05-17T00:04:00;102258.94;;;9.54;94.54
59787;BME280;45672;51.612;5.536;2023-05-17T00:06:26;102271.06;;;9.58;94.33
59787;BME280;45672;51.612;5.536;2023-05-17T00:08:51;102280.44;;;9.51;95.41
59787;BME280;45672;51.612;5.536;2023-05-17T00:11:16;102269.19;;;9.47;94.90
59787;BME280;45672;51.612;5.536;2023-05-17T00:13:42;102282.38;;;9.48;95.22
59787;BME280;45672;51.612;5.536;2023-05-17T00:16:07;102275.47;;;9.46;95.70
59787;BME280;45672;51.612;5.536;2023-05-17T00:18:32;102273.75;;;9.45;95.75
59787;BME280;45672;51.612;5.536;2023-05-17T00:20:58;102270.28;;;9.44;95.90
59787;BME280;45672;51.612;5.536;2023-05-17T00:23:23;102272.19;;;9.42;95.98
59787;BME280;45672;51.612;5.536;2023-05-17T00:25:48;102271.34;;;9.42;96.27
59787;BME280;45672;51.612;5.536;2023-05-17T00:28:14;102279.19;;;9.43;96.55
59787;BME280;45672;51.612;5.536;2023-05-17T00:30:39;102259.47;;;9.35;96.16
59787;BME280;45672;51.612;5.536;2023-05-17T00:33:04;102277.50;;;9.42;97.11
59787;BME280;45672;51.612;5.536;2023-05-17T00:35:30;102274.22;;;9.39;97.00
59787;BME280;45672;51.612;5.536;2023-05-17T00:37:55;102275.16;;;9.38;97.03
59787;BME280;45672;51.612;5.536;2023-05-17T00:40:21;102278.69;;;9.38;97.04
59787;BME280;45672;51.612;5.536;2023-05-17T00:42:46;102276.34;;;9.34;97.21
59787;BME280;45672;51.612;5.536;2023-05-17T00:45:11;102284.31;;;9.34;97.91
59787;BME280;45672;51.612;5.536;2023-05-17T00:47:37;102279.13;;;9.32;97.67
59787;BME280;45672;51.612;5.536;2023-05-17T00:50:04;102272.84;;;9.33;98.19
59787;BME280;45672;51.612;5.536;2023-05-17T00:52:29;102264.16;;;9.31;98.38
59787;BME280;45672;51.612;5.536;2023-05-17T00:54:54;102270.44;;;9.30;98.34
59787;BME280;45672;51.612;5.536;2023-05-17T00:57:20;102273.19;;;9.28;98.17
59787;BME280;45672;51.612;5.536;2023-05-17T00:59:45;102261.81;;;9.26;98.88
59787;BME280;45672;51.612;5.536;2023-05-17T01:02:11;102268.72;;;9.29;98.95
59787;BME280;45672;51.612;5.536;2023-05-17T01:04:37;102277.44;;;9.31;99.21
59787;BME280;45672;51.612;5.536;2023-05-17T01:07:03;102270.84;;;9.24;99.26
59787;BME280;45672;51.612;5.536;2023-05-17T01:09:28;102263.34;;;9.18;99.49
59787;BME280;45672;51.612;5.536;2023-05-17T01:15:06;102274.59;;;9.21;100.00
59787;BME280;45672;51.612;5.536;2023-05-17T01:17:59;102277.38;;;9.20;99.29
59787;BME280;45672;51.612;5.536;2023-05-17T01:20:43;102276.97;;;9.13;100.00
59787;BME280;45672;51.612;5.536;2023-05-17T01:26:15;102279.63;;;9.13;100.00
59787;BME280;45672;51.612;5.536;2023-05-17T01:28:44;102275.38;;;9.10;100.00
59787;BME280;45672;51.612;5.536;2023-05-17T01:31:10;102269.53;;;9.05;100.00
59787;BME280;45672;51.612;5.536;2023-05-17T01:33:37;102273.06;;;9.06;100.00
59787;BME280;45672;51.612;5.536;2023-05-17T01:36:02;102278.97;;;9.09;100.00
59787;BME280;45672;51.612;5.536;2023-05-17T01:38:28;102274.66;;;9.08;100.00
59787;BME280;45672;51.612;5.536;2023-05-17T01:41:23;102286.81;;;9.11;100.00
59787;BME280;45672;51.612;5.536;2023-05-17T01:46:31;102279.53;;;9.02;100.00
59787;BME280;45672;51.612;5.536;2023-05-17T01:49:17;102270.72;;;9.01;100.00
59787;BME280;45672;51.612;5.536;2023-05-17T01:52:16;102273.16;;;9.04;100.00
59787;BME280;45672;51.612;5.536;2023-05-17T01:54:46;102274.84;;;9.05;100.00
59787;BME280;45672;51.612;5.536;2023-05-17T01:57:13;102281.44;;;9.00;100.00
59787;BME280;45672;51.612;5.536;2023-05-17T01:59:39;102274.00;;;9.05;100.00
59787;BME280;45672;51.612;5.536;2023-05-17T02:02:06;102274.13;;;9.03;100.00
59787;BME280;45672;51.612;5.536;2023-05-17T02:04:34;102284.63;;;9.05;100.00
59787;BME280;45672;51.612;5.536;2023-05-17T02:07:03;102278.47;;;9.04;100.00
59787;BME280;45672;51.612;5.536;2023-05-17T02:09:29;102270.63;;;9.03;100.00
59787;BME280;45672;51.612;5.536;2023-05-17T02:11:55;102266.97;;;9.04;100.00
59787;BME280;45672;51.612;5.536;2023-05-17T02:14:20;102267.97;;;9.03;100.00
59787;BME280;45672;51.612;5.536;2023-05-17T02:16:45;102269.44;;;9.07;100.00
59787;BME280;45672;51.612;5.536;2023-05-17T02:19:11;102260.50;;;9.08;100.00
59787;BME280;45672;51.612;5.536;2023-05-17T02:21:37;102266.22;;;9.14;100.00
59787;BME280;45672;51.612;5.536;2023-05-17T02:24:03;102263.56;;;9.14;100.00
59787;BME280;45672;51.612;5.536;2023-05-17T02:26:28;102275.03;;;9.15;100.00
59787;BME280;45672;51.612;5.536;2023-05-17T02:28:55;102267.94;;;9.16;100.00
59787;BME280;45672;51.612;5.536;2023-05-17T02:31:20;102275.91;;;9.16;100.00
59787;BME280;45672;51.612;5.536;2023-05-17T02:33:46;102279.81;;;9.23;100.00
59787;BME280;45672;51.612;5.536;2023-05-17T02:36:11;102271.38;;;9.29;100.00
59787;BME280;45672;51.612;5.536;2023-05-17T02:38:36;102286.38;;;9.30;100.00
59787;BME280;45672;51.612;5.536;2023-05-17T02:41:02;102289.63;;;9.34;100.00
59787;BME280;45672;51.612;5.536;2023-05-17T02:43:27;102289.31;;;9.38;100.00
59787;BME280;45672;51.612;5.536;2023-05-17T02:45:53;102280.16;;;9.42;100.00
59787;BME280;45672;51.612;5.536;2023-05-17T02:48:18;102276.31;;;9.46;100.00
59787;BME280;45672;51.612;5.536;2023-05-17T02:50:43;102277.06;;;9.48;100.00
59787;BME280;45672;51.612;5.536;2023-05-17T02:53:09;102290.41;;;9.60;100.00
59787;BME280;45672;51.612;5.536;2023-05-17T02:55:34;102275.53;;;9.57;100.00
59787;BME280;45672;51.612;5.536;2023-05-17T02:57:59;102285.56;;;9.65;100.00
59787;BME280;45672;51.612;5.536;2023-05-17T03:00:25;102291.19;;;9.73;100.00
59787;BME280;45672;51.612;5.536;2023-05-17T03:02:50;102286.84;;;9.72;100.00
59787;BME280;45672;51.612;5.536;2023-05-17T03:05:16;102287.44;;;9.76;100.00
59787;BME280;45672;51.612;5.536;2023-05-17T03:07:41;102297.41;;;9.85;100.00
59787;BME280;45672;51.612;5.536;2023-05-17T03:10:06;102296.31;;;9.88;100.00
59787;BME280;45672;51.612;5.536;2023-05-17T03:12:32;102298.25;;;9.86;100.00
59787;BME280;45672;51.612;5.536;2023-05-17T03:14:57;102298.75;;;9.91;100.00
59787;BME280;45672;51.612;5.536;2023-05-17T03:17:22;102298.75;;;9.91;100.00
59787;BME280;45672;51.612;5.536;2023-05-17T03:19:48;102304.91;;;9.91;100.00
59787;BME280;45672;51.612;5.536;2023-05-17T03:22:13;102301.63;;;9.88;100.00
59787;BME280;45672;51.612;5.536;2023-05-17T03:24:38;102306.75;;;9.91;100.00
59787;BME280;45672;51.612;5.536;2023-05-17T03:27:04;102308.53;;;9.90;100.00
59787;BME280;45672;51.612;5.536;2023-05-17T03:29:29;102318.34;;;9.90;100.00
59787;BME280;45672;51.612;5.536;2023-05-17T03:31:54;102320.47;;;9.84;100.00
59787;BME280;45672;51.612;5.536;2023-05-17T03:34:20;102326.84;;;9.82;100.00
59787;BME280;45672;51.612;5.536;2023-05-17T03:36:45;102331.06;;;9.73;100.00
59787;BME280;45672;51.612;5.536;2023-05-17T03:39:10;102324.59;;;9.64;100.00
59787;BME280;45672;51.612;5.536;2023-05-17T03:41:36;102325.91;;;9.59;100.00
59787;BME280;45672;51.612;5.536;2023-05-17T03:44:01;102324.03;;;9.48;100.00
59787;BME280;45672;51.612;5.536;2023-05-17T03:46:26;102317.69;;;9.38;100.00
59787;BME280;45672;51.612;5.536;2023-05-17T03:48:51;102327.88;;;9.44;100.00
59787;BME280;45672;51.612;5.536;2023-05-17T03:51:17;102333.63;;;9.38;100.00
59787;BME280;45672;51.612;5.536;2023-05-17T03:53:42;102340.75;;;9.37;100.00
59787;BME280;45672;51.612;5.536;2023-05-17T03:56:08;102331.75;;;9.27;100.00
59787;BME280;45672;51.612;5.536;2023-05-17T03:58:34;102339.91;;;9.24;100.00
59787;BME280;45672;51.612;5.536;2023-05-17T04:01:01;102343.53;;;9.23;100.00
59787;BME280;45672;51.612;5.536;2023-05-17T04:03:26;102338.53;;;9.18;100.00
59787;BME280;45672;51.612;5.536;2023-05-17T04:05:51;102344.81;;;9.17;100.00
59787;BME280;45672;51.612;5.536;2023-05-17T04:08:16;102341.53;;;9.13;100.00
59787;BME280;45672;51.612;5.536;2023-05-17T04:10:42;102350.97;;;9.18;100.00
59787;BME280;45672;51.612;5.536;2023-05-17T04:13:08;102339.84;;;9.12;100.00
59787;BME280;45672;51.612;5.536;2023-05-17T04:15:34;102337.28;;;9.11;100.00
59787;BME280;45672;51.612;5.536;2023-05-17T04:17:59;102341.41;;;9.15;100.00
59787;BME280;45672;51.612;5.536;2023-05-17T04:20:25;102337.28;;;9.11;100.00
59787;BME280;45672;51.612;5.536;2023-05-17T04:22:50;102345.78;;;9.16;100.00
59787;BME280;45672;51.612;5.536;2023-05-17T04:25:16;102344.81;;;9.17;100.00
59787;BME280;45672;51.612;5.536;2023-05-17T04:27:42;102344.81;;;9.17;100.00
59787;BME280;45672;51.612;5.536;2023-05-17T04:30:08;102360.75;;;9.30;100.00
59787;BME280;45672;51.612;5.536;2023-05-17T04:32:33;102360.84;;;9.28;100.00
59787;BME280;45672;51.612;5.536;2023-05-17T04:34:59;102356.38;;;9.29;100.00
59787;BME280;45672;51.612;5.536;2023-05-17T04:37:25;102372.63;;;9.37;100.00
59787;BME280;45672;51.612;5.536;2023-05-17T04:39:51;102370.19;;;9.34;100.00
59787;BME280;45672;51.612;5.536;2023-05-17T04:42:17;102365.72;;;9.35;100.00
59787;BME280;45672;51.612;5.536;2023-05-17T04:44:42;102378.47;;;9.42;100.00
59787;BME280;45672;51.612;5.536;2023-05-17T04:47:08;102386.44;;;9.42;100.00
59787;BME280;45672;51.612;5.536;2023-05-17T04:49:33;102381.84;;;9.44;100.00
59787;BME280;45672;51.612;5.536;2023-05-17T04:51:58;102387.38;;;9.41;100.00
59787;BME280;45672;51.612;5.536;2023-05-17T04:54:25;102375.38;;;9.36;100.00
59787;BME280;45672;51.612;5.536;2023-05-17T04:56:50;102388.13;;;9.43;100.00
59787;BME280;45672;51.612;5.536;2023-05-17T04:59:15;102395.03;;;9.46;100.00
59787;BME280;45672;51.612;5.536;2023-05-17T05:01:41;102391.81;;;9.54;100.00
59787;BME280;45672;51.612;5.536;2023-05-17T05:04:06;102395.34;;;9.54;100.00
59787;BME280;45672;51.612;5.536;2023-05-17T05:06:33;102398.41;;;9.61;100.00
59787;BME280;45672;51.612;5.536;2023-05-17T05:09:01;102404.09;;;9.68;100.00
59787;BME280;45672;51.612;5.536;2023-05-17T05:11:28;102404.88;;;9.70;100.00
59787;BME280;45672;51.612;5.536;2023-05-17T05:13:54;102412.38;;;9.76;100.00
59787;BME280;45672;51.612;5.536;2023-05-17T05:16:20;102409.50;;;9.79;100.00
59787;BME280;45672;51.612;5.536;2023-05-17T05:18:45;102425.75;;;9.87;100.00
59787;BME280;45672;51.612;5.536;2023-05-17T05:21:11;102419.78;;;9.96;100.00
59787;BME280;45672;51.612;5.536;2023-05-17T05:23:36;102420.03;;;10.05;100.00
59787;BME280;45672;51.612;5.536;2023-05-17T05:26:01;102430.13;;;10.12;100.00
59787;BME280;45672;51.612;5.536;2023-05-17T05:28:26;102427.88;;;10.19;100.00
59787;BME280;45672;51.612;5.536;2023-05-17T05:30:59;102430.31;;;10.22;100.00
59787;BME280;45672;51.612;5.536;2023-05-17T05:33:24;102433.34;;;10.29;100.00
59787;BME280;45672;51.612;5.536;2023-05-17T05:35:50;102438.72;;;10.40;100.00
59787;BME280;45672;51.612;5.536;2023-05-17T05:38:16;102435.41;;;10.49;100.00
59787;BME280;45672;51.612;5.536;2023-05-17T05:40:41;102447.88;;;10.60;100.00
59787;BME280;45672;51.612;5.536;2023-05-17T05:43:06;102440.53;;;10.64;100.00
59787;BME280;45672;51.612;5.536;2023-05-17T05:45:31;102443.69;;;10.69;100.00
59787;BME280;45672;51.612;5.536;2023-05-17T05:47:57;102447.91;;;10.72;100.00
59787;BME280;45672;51.612;5.536;2023-05-17T05:50:22;102450.25;;;10.76;100.00
59787;BME280;45672;51.612;5.536;2023-05-17T05:52:47;102452.31;;;10.84;100.00
59787;BME280;45672;51.612;5.536;2023-05-17T05:55:13;102454.41;;;10.92;100.00
59787;BME280;45672;51.612;5.536;2023-05-17T05:57:38;102452.84;;;11.00;97.95
59787;BME280;45672;51.612;5.536;2023-05-17T06:00:04;102466.06;;;11.13;96.78
59787;BME280;45672;51.612;5.536;2023-05-17T06:02:29;102464.00;;;11.17;95.96
59787;BME280;45672;51.612;5.536;2023-05-17T06:04:55;102475.88;;;11.24;94.58
59787;BME280;45672;51.612;5.536;2023-05-17T06:07:20;102467.31;;;11.32;93.84
59787;BME280;45672;51.612;5.536;2023-05-17T06:09:45;102470.44;;;11.37;94.42
59787;BME280;45672;51.612;5.536;2023-05-17T06:12:11;102470.34;;;11.50;93.35
59787;BME280;45672;51.612;5.536;2023-05-17T06:14:36;102478.44;;;11.71;92.42
59787;BME280;45672;51.612;5.536;2023-05-17T06:17:02;102486.44;;;11.82;90.96
59787;BME280;45672;51.612;5.536;2023-05-17T06:19:28;102483.66;;;11.95;88.12
59787;BME280;45672;51.612;5.536;2023-05-17T06:21:53;102492.50;;;12.07;85.41
59787;BME280;45672;51.612;5.536;2023-05-17T06:24:18;102484.50;;;12.07;84.77
59787;BME280;45672;51.612;5.536;2023-05-17T06:26:44;102492.72;;;12.27;82.89
59787;BME280;45672;51.612;5.536;2023-05-17T06:29:11;102498.03;;;12.59;80.44
59787;BME280;45672;51.612;5.536;2023-05-17T06:31:36;102508.00;;;12.89;79.64
59787;BME280;45672;51.612;5.536;2023-05-17T06:34:01;102488.63;;;13.18;76.52
59787;BME280;45672;51.612;5.536;2023-05-17T06:36:27;102501.28;;;13.68;75.32
59787;BME280;45672;51.612;5.536;2023-05-17T06:38:52;102497.94;;;14.36;72.81
59787;BME280;45672;51.612;5.536;2023-05-17T06:41:18;102505.28;;;15.03;69.19
59787;BME280;45672;51.612;5.536;2023-05-17T06:43:44;102502.13;;;15.64;66.21
59787;BME280;45672;51.612;5.536;2023-05-17T06:46:09;102504.22;;;15.71;61.12
59787;BME280;45672;51.612;5.536;2023-05-17T06:48:35;102507.78;;;15.99;60.31
59787;BME280;45672;51.612;5.536;2023-05-17T06:51:00;102518.59;;;16.35;61.50
59787;BME280;45672;51.612;5.536;2023-05-17T06:53:26;102517.50;;;17.00;58.92
59787;BME280;45672;51.612;5.536;2023-05-17T06:55:51;102503.63;;;17.39;56.57
59787;BME280;45672;51.612;5.536;2023-05-17T06:58:16;102509.25;;;18.39;52.22
59787;BME280;45672;51.612;5.536;2023-05-17T07:00:42;102521.03;;;18.38;51.65
59787;BME280;45672;51.612;5.536;2023-05-17T07:03:07;102514.50;;;18.99;47.95
59787;BME280;45672;51.612;5.536;2023-05-17T07:05:32;102509.81;;;18.92;47.03
59787;BME280;45672;51.612;5.536;2023-05-17T07:07:58;102523.28;;;18.00;49.84
59787;BME280;45672;51.612;5.536;2023-05-17T07:10:23;102520.72;;;18.58;48.97
59787;BME280;45672;51.612;5.536;2023-05-17T07:12:49;102527.38;;;19.53;47.43
59787;BME280;45672;51.612;5.536;2023-05-17T07:15:14;102535.47;;;19.61;44.88
59787;BME280;45672;51.612;5.536;2023-05-17T07:17:41;102524.44;;;18.73;45.85
59787;BME280;45672;51.612;5.536;2023-05-17T07:20:06;102523.75;;;18.71;46.57
59787;BME280;45672;51.612;5.536;2023-05-17T07:22:32;102528.56;;;18.18;46.86
59787;BME280;45672;51.612;5.536;2023-05-17T07:24:57;102535.13;;;17.47;49.27
59787;BME280;45672;51.612;5.536;2023-05-17T07:27:23;102537.16;;;16.82;49.48
59787;BME280;45672;51.612;5.536;2023-05-17T07:29:48;102531.88;;;16.36;52.01
59787;BME280;45672;51.612;5.536;2023-05-17T07:32:13;102540.56;;;17.55;49.32
59787;BME280;45672;51.612;5.536;2023-05-17T07:34:40;102543.13;;;18.67;47.02
59787;BME280;45672;51.612;5.536;2023-05-17T07:37:05;102538.16;;;19.69;43.14
59787;BME280;45672;51.612;5.536;2023-05-17T07:39:30;102550.84;;;19.60;41.40
59787;BME280;45672;51.612;5.536;2023-05-17T07:41:56;102552.28;;;19.23;43.65
59787;BME280;45672;51.612;5.536;2023-05-17T07:44:21;102542.78;;;20.31;41.16
59787;BME280;45672;51.612;5.536;2023-05-17T07:46:46;102555.69;;;19.73;41.24
59787;BME280;45672;51.612;5.536;2023-05-17T07:49:12;102540.13;;;18.94;42.27
59787;BME280;45672;51.612;5.536;2023-05-17T07:51:38;102554.19;;;18.31;44.68
59787;BME280;45672;51.612;5.536;2023-05-17T07:54:03;102554.44;;;19.36;43.91
59787;BME280;45672;51.612;5.536;2023-05-17T07:56:28;102553.50;;;20.17;39.81
59787;BME280;45672;51.612;5.536;2023-05-17T07:58:54;102542.34;;;18.99;41.56
59787;BME280;45672;51.612;5.536;2023-05-17T08:01:20;102560.09;;;19.66;41.02
59787;BME280;45672;51.612;5.536;2023-05-17T08:03:45;102565.44;;;21.38;36.43
59787;BME280;45672;51.612;5.536;2023-05-17T08:06:16;102562.81;;;22.19;35.03
59787;BME280;45672;51.612;5.536;2023-05-17T08:08:42;102562.22;;;23.32;32.61
59787;BME280;45672;51.612;5.536;2023-05-17T08:11:09;102568.59;;;24.36;33.03
59787;BME280;45672;51.612;5.536;2023-05-17T08:13:34;102565.78;;;25.32;29.40
59787;BME280;45672;51.612;5.536;2023-05-17T08:16:00;102568.63;;;26.22;29.10
59787;BME280;45672;51.612;5.536;2023-05-17T08:18:28;102569.63;;;26.66;28.43
59787;BME280;45672;51.612;5.536;2023-05-17T08:20:53;102560.34;;;27.43;26.76
59787;BME280;45672;51.612;5.536;2023-05-17T08:23:19;102573.31;;;28.22;26.66
59787;BME280;45672;51.612;5.536;2023-05-17T08:25:44;102576.50;;;28.61;25.05
59787;BME280;45672;51.612;5.536;2023-05-17T08:28:10;102579.84;;;29.41;24.10
59787;BME280;45672;51.612;5.536;2023-05-17T08:30:35;102573.63;;;28.98;23.35
59787;BME280;45672;51.612;5.536;2023-05-17T08:33:00;102576.22;;;27.34;25.45
59787;BME280;45672;51.612;5.536;2023-05-17T08:35:26;102574.78;;;24.92;27.91
59787;BME280;45672;51.612;5.536;2023-05-17T08:37:52;102567.22;;;23.29;29.55
59787;BME280;45672;51.612;5.536;2023-05-17T08:40:19;102569.22;;;21.82;31.33
59787;BME280;45672;51.612;5.536;2023-05-17T08:42:45;102564.75;;;22.41;31.72
59787;BME280;45672;51.612;5.536;2023-05-17T08:45:11;102559.63;;;23.17;30.63
59787;BME280;45672;51.612;5.536;2023-05-17T08:47:38;102572.25;;;24.64;29.08
59787;BME280;45672;51.612;5.536;2023-05-17T08:50:06;102574.88;;;25.84;26.44
59787;BME280;45672;51.612;5.536;2023-05-17T08:52:32;102570.22;;;27.19;24.80
59787;BME280;45672;51.612;5.536;2023-05-17T08:54:57;102573.94;;;28.06;24.82
59787;BME280;45672;51.612;5.536;2023-05-17T08:57:27;102581.03;;;28.55;23.35
59787;BME280;45672;51.612;5.536;2023-05-17T08:59:53;102578.03;;;28.45;23.61
59787;BME280;45672;51.612;5.536;2023-05-17T09:02:19;102588.31;;;27.64;23.24
59787;BME280;45672;51.612;5.536;2023-05-17T09:04:44;102584.41;;;25.08;26.03
59787;BME280;45672;51.612;5.536;2023-05-17T09:07:10;102578.53;;;23.11;28.00
59787;BME280;45672;51.612;5.536;2023-05-17T09:09:36;102575.81;;;23.11;29.23
59787;BME280;45672;51.612;5.536;2023-05-17T09:12:01;102580.41;;;25.17;26.29
59787;BME280;45672;51.612;5.536;2023-05-17T09:14:32;102583.13;;;27.37;24.68
59787;BME280;45672;51.612;5.536;2023-05-17T09:16:59;102597.75;;;28.35;21.71
59787;BME280;45672;51.612;5.536;2023-05-17T09:19:25;102576.56;;;28.43;21.75
59787;BME280;45672;51.612;5.536;2023-05-17T09:21:52;102580.91;;;29.04;21.82
59787;BME280;45672;51.612;5.536;2023-05-17T09:24:26;102593.44;;;30.00;21.99
59787;BME280;45672;51.612;5.536;2023-05-17T09:26:51;102590.97;;;27.52;23.33
59787;BME280;45672;51.612;5.536;2023-05-17T09:29:16;102593.25;;;28.83;22.55
59787;BME280;45672;51.612;5.536;2023-05-17T09:31:43;102588.16;;;29.11;21.12
59787;BME280;45672;51.612;5.536;2023-05-17T09:34:09;102589.25;;;29.33;21.82
59787;BME280;45672;51.612;5.536;2023-05-17T09:36:36;102592.13;;;30.32;21.22
59787;BME280;45672;51.612;5.536;2023-05-17T09:39:04;102584.41;;;31.08;20.77
59787;BME280;45672;51.612;5.536;2023-05-17T09:41:40;102589.38;;;31.28;21.42
59787;BME280;45672;51.612;5.536;2023-05-17T09:44:10;102596.84;;;30.19;22.02
59787;BME280;45672;51.612;5.536;2023-05-17T09:46:43;102593.41;;;29.48;22.35
59787;BME280;45672;51.612;5.536;2023-05-17T09:49:08;102590.56;;;30.36;21.58
59787;BME280;45672;51.612;5.536;2023-05-17T09:51:36;102586.19;;;30.23;20.63
59787;BME280;45672;51.612;5.536;2023-05-17T09:54:02;102585.56;;;30.78;20.89
59787;BME280;45672;51.612;5.536;2023-05-17T09:56:28;102575.13;;;32.20;18.90
59787;BME280;45672;51.612;5.536;2023-05-17T09:58:54;102579.31;;;32.01;18.82
59787;BME280;45672;51.612;5.536;2023-05-17T10:01:20;102590.50;;;32.71;18.11
59787;BME280;45672;51.612;5.536;2023-05-17T10:03:46;102589.00;;;33.33;17.63
59787;BME280;45672;51.612;5.536;2023-05-17T10:06:12;102585.75;;;32.98;17.40
59787;BME280;45672;51.612;5.536;2023-05-17T10:08:43;102586.34;;;32.13;18.83
59787;BME280;45672;51.612;5.536;2023-05-17T10:11:11;102585.41;;;32.90;17.68
59787;BME280;45672;51.612;5.536;2023-05-17T10:13:51;102582.63;;;30.85;19.32
59787;BME280;45672;51.612;5.536;2023-05-17T10:16:19;102591.53;;;27.10;21.73
59787;BME280;45672;51.612;5.536;2023-05-17T10:18:48;102591.63;;;26.01;23.33
59787;BME280;45672;51.612;5.536;2023-05-17T10:21:13;102594.16;;;27.86;21.12
59787;BME280;45672;51.612;5.536;2023-05-17T10:23:39;102585.28;;;29.77;19.68
59787;BME280;45672;51.612;5.536;2023-05-17T10:26:08;102591.25;;;31.45;18.49
59787;BME280;45672;51.612;5.536;2023-05-17T10:28:35;102594.81;;;31.06;18.41
59787;BME280;45672;51.612;5.536;2023-05-17T10:31:02;102590.97;;;30.73;18.96
59787;BME280;45672;51.612;5.536;2023-05-17T10:33:30;102589.91;;;31.48;18.17
59787;BME280;45672;51.612;5.536;2023-05-17T10:35:57;102574.63;;;29.80;19.07
59787;BME280;45672;51.612;5.536;2023-05-17T10:38:22;102587.25;;;28.02;20.73
59787;BME280;45672;51.612;5.536;2023-05-17T10:40:49;102581.59;;;26.65;22.98
59787;BME280;45672;51.612;5.536;2023-05-17T10:43:17;102575.81;;;24.84;22.44
59787;BME280;45672;51.612;5.536;2023-05-17T10:45:43;102570.56;;;23.31;24.79
59787;BME280;45672;51.612;5.536;2023-05-17T10:48:10;102572.28;;;22.45;27.26
59787;BME280;45672;51.612;5.536;2023-05-17T10:50:39;102561.03;;;21.37;27.83
59787;BME280;45672;51.612;5.536;2023-05-17T10:53:08;102559.56;;;20.96;30.78
59787;BME280;45672;51.612;5.536;2023-05-17T10:55:43;102569.59;;;20.64;29.22
59787;BME280;45672;51.612;5.536;2023-05-17T10:58:14;102568.44;;;20.59;30.54
59787;BME280;45672;51.612;5.536;2023-05-17T11:00:40;102552.69;;;20.39;29.73
59787;BME280;45672;51.612;5.536;2023-05-17T11:03:25;102550.13;;;20.14;30.89
59787;BME280;45672;51.612;5.536;2023-05-17T11:06:17;102557.25;;;19.59;32.01
59787;BME280;45672;51.612;5.536;2023-05-17T11:09:23;102547.28;;;19.60;32.86
59787;BME280;45672;51.612;5.536;2023-05-17T11:12:05;102546.81;;;19.40;32.65
59787;BME280;45672;51.612;5.536;2023-05-17T11:17:12;102546.53;;;19.18;33.91
59787;BME280;45672;51.612;5.536;2023-05-17T11:22:22;102554.13;;;18.90;32.98
59787;BME280;45672;51.612;5.536;2023-05-17T11:24:56;102556.97;;;18.64;32.50
59787;BME280;45672;51.612;5.536;2023-05-17T11:27:22;102549.03;;;18.70;31.94
59787;BME280;45672;51.612;5.536;2023-05-17T11:29:54;102547.34;;;18.61;32.81
59787;BME280;45672;51.612;5.536;2023-05-17T11:32:27;102551.41;;;18.82;32.84
59787;BME280;45672;51.612;5.536;2023-05-17T11:34:53;102547.22;;;19.04;33.93
59787;BME280;45672;51.612;5.536;2023-05-17T11:37:28;102551.75;;;19.20;32.66
59787;BME280;45672;51.612;5.536;2023-05-17T11:40:04;102548.22;;;19.11;33.00
59787;BME280;45672;51.612;5.536;2023-05-17T11:42:31;102547.03;;;19.05;34.25
59787;BME280;45672;51.612;5.536;2023-05-17T11:44:57;102545.88;;;19.00;33.26
59787;BME280;45672;51.612;5.536;2023-05-17T11:47:23;102554.13;;;18.90;34.00
59787;BME280;45672;51.612;5.536;2023-05-17T11:49:49;102537.91;;;18.65;32.61
59787;BME280;45672;51.612;5.536;2023-05-17T11:52:17;102548.72;;;18.73;35.20
59787;BME280;45672;51.612;5.536;2023-05-17T11:54:42;102539.13;;;18.87;34.38
59787;BME280;45672;51.612;5.536;2023-05-17T11:57:10;102547.91;;;18.98;33.33
59787;BME280;45672;51.612;5.536;2023-05-17T11:59:37;102552.44;;;18.89;31.98
59787;BME280;45672;51.612;5.536;2023-05-17T12:02:24;102556.13;;;18.71;33.22
59787;BME280;45672;51.612;5.536;2023-05-17T12:04:50;102550.72;;;18.71;32.66
59787;BME280;45672;51.612;5.536;2023-05-17T12:07:15;102539.94;;;18.71;32.81
59787;BME280;45672;51.612;5.536;2023-05-17T12:09:43;102546.00;;;18.57;33.58
59787;BME280;45672;51.612;5.536;2023-05-17T12:12:08;102554.06;;;18.49;32.43
59787;BME280;45672;51.612;5.536;2023-05-17T12:14:34;102545.25;;;18.14;32.95
59787;BME280;45672;51.612;5.536;2023-05-17T12:17:02;102546.56;;;18.09;31.98
59787;BME280;45672;51.612;5.536;2023-05-17T12:19:29;102550.38;;;17.99;31.97
59787;BME280;45672;51.612;5.536;2023-05-17T12:22:10;102553.78;;;17.74;32.69
59787;BME280;45672;51.612;5.536;2023-05-17T12:24:40;102552.09;;;17.73;33.39
59787;BME280;45672;51.612;5.536;2023-05-17T12:27:06;102546.09;;;17.88;34.35
59787;BME280;45672;51.612;5.536;2023-05-17T12:29:31;102555.41;;;17.94;33.46
59787;BME280;45672;51.612;5.536;2023-05-17T12:31:58;102547.16;;;17.95;33.53
59787;BME280;45672;51.612;5.536;2023-05-17T12:34:24;102541.41;;;17.90;33.65
59787;BME280;45672;51.612;5.536;2023-05-17T12:36:49;102544.72;;;17.75;34.08
59787;BME280;45672;51.612;5.536;2023-05-17T12:39:17;102538.66;;;17.82;33.00
59787;BME280;45672;51.612;5.536;2023-05-17T12:41:48;102529.84;;;17.63;32.05
59787;BME280;45672;51.612;5.536;2023-05-17T12:44:13;102535.88;;;17.65;34.36
59787;BME280;45672;51.612;5.536;2023-05-17T12:46:39;102535.88;;;17.65;32.74
59787;BME280;45672;51.612;5.536;2023-05-17T12:49:06;102534.91;;;17.66;33.11
59787;BME280;45672;51.612;5.536;2023-05-17T12:51:39;102542.97;;;17.92;34.28
59787;BME280;45672;51.612;5.536;2023-05-17T12:54:06;102544.00;;;17.73;30.98
59787;BME280;45672;51.612;5.536;2023-05-17T12:56:31;102541.53;;;17.46;31.38
59787;BME280;45672;51.612;5.536;2023-05-17T12:59:03;102546.16;;;17.62;31.00
59787;BME280;45672;51.612;5.536;2023-05-17T13:01:38;102554.28;;;17.44;32.78
59787;BME280;45672;51.612;5.536;2023-05-17T13:04:04;102545.63;;;17.32;32.69